sensor_id;sensor_type;location;lat;lon;timestamp;P1;durP1;ratioP1;P2;durP2;ratioP2
76978;SDS011;65911;47.502;19.148;2023-04-25T00:00:55;1.40;;;1.20;;
76978;SDS011;65911;47.502;19.148;2023-04-25T00:03:58;0.80;;;0.80;;
76978;SDS011;65911;47.502;19.148;2023-04-25T00:07:01;1.10;;;0.77;;
76978;SDS011;65911;47.502;19.148;2023-04-25T00:10:03;1.02;;;1.02;;
76978;SDS011;65911;47.502;19.148;2023-04-25T00:13:06;1.08;;;0.70;;
76978;SDS011;65911;47.502;19.148;2023-04-25T00:16:10;1.40;;;1.10;;
76978;SDS011;65911;47.502;19.148;2023-04-25T00:19:12;0.85;;;0.82;;
76978;SDS011;65911;47.502;19.148;2023-04-25T00:22:15;1.25;;;1.00;;
76978;SDS011;65911;47.502;19.148;2023-04-25T00:25:18;1.25;;;0.80;;
76978;SDS011;65911;47.502;19.148;2023-04-25T00:28:20;1.10;;;1.10;;
76978;SDS011;65911;47.502;19.148;2023-04-25T00:31:22;1.08;;;0.77;;
76978;SDS011;65911;47.502;19.148;2023-04-25T00:34:25;0.85;;;0.85;;
76978;SDS011;65911;47.502;19.148;2023-04-25T00:37:27;1.20;;;0.77;;
76978;SDS011;65911;47.502;19.148;2023-04-25T00:40:29;1.73;;;0.80;;
76978;SDS011;65911;47.502;19.148;2023-04-25T00:43:31;1.00;;;0.90;;
76978;SDS011;65911;47.502;19.148;2023-04-25T00:46:34;0.80;;;0.80;;
76978;SDS011;65911;47.502;19.148;2023-04-25T00:49:37;1.30;;;0.90;;
76978;SDS011;65911;47.502;19.148;2023-04-25T00:52:40;1.13;;;0.93;;
76978;SDS011;65911;47.502;19.148;2023-04-25T00:55:43;0.80;;;0.80;;
76978;SDS011;65911;47.502;19.148;2023-04-25T00:58:47;1.02;;;0.88;;
76978;SDS011;65911;47.502;19.148;2023-04-25T01:01:49;1.40;;;1.13;;
76978;SDS011;65911;47.502;19.148;2023-04-25T01:04:52;2.13;;;1.00;;
76978;SDS011;65911;47.502;19.148;2023-04-25T01:07:55;2.93;;;2.03;;
76978;SDS011;65911;47.502;19.148;2023-04-25T01:10:57;3.13;;;1.40;;
76978;SDS011;65911;47.502;19.148;2023-04-25T01:14:00;1.90;;;1.10;;
76978;SDS011;65911;47.502;19.148;2023-04-25T01:17:03;1.63;;;1.20;;
76978;SDS011;65911;47.502;19.148;2023-04-25T01:20:06;1.35;;;1.00;;
76978;SDS011;65911;47.502;19.148;2023-04-25T01:23:11;1.10;;;1.00;;
76978;SDS011;65911;47.502;19.148;2023-04-25T01:26:14;1.52;;;1.08;;
76978;SDS011;65911;47.502;19.148;2023-04-25T01:29:17;1.10;;;0.85;;
76978;SDS011;65911;47.502;19.148;2023-04-25T01:32:20;3.33;;;1.40;;
76978;SDS011;65911;47.502;19.148;2023-04-25T01:35:24;1.65;;;1.40;;
76978;SDS011;65911;47.502;19.148;2023-04-25T01:38:30;1.37;;;1.20;;
76978;SDS011;65911;47.502;19.148;2023-04-25T01:41:32;1.42;;;1.30;;
76978;SDS011;65911;47.502;19.148;2023-04-25T01:44:36;1.83;;;1.23;;
76978;SDS011;65911;47.502;19.148;2023-04-25T01:47:40;1.50;;;1.40;;
76978;SDS011;65911;47.502;19.148;2023-04-25T01:50:43;1.73;;;1.33;;
76978;SDS011;65911;47.502;19.148;2023-04-25T01:53:46;1.35;;;1.25;;
76978;SDS011;65911;47.502;19.148;2023-04-25T01:56:49;2.30;;;1.50;;
76978;SDS011;65911;47.502;19.148;2023-04-25T01:59:55;3.85;;;1.63;;
76978;SDS011;65911;47.502;19.148;2023-04-25T02:03:13;2.10;;;1.50;;
76978;SDS011;65911;47.502;19.148;2023-04-25T02:06:15;1.50;;;1.33;;
76978;SDS011;65911;47.502;19.148;2023-04-25T02:09:20;1.63;;;1.27;;
76978;SDS011;65911;47.502;19.148;2023-04-25T02:12:27;2.58;;;2.03;;
76978;SDS011;65911;47.502;19.148;2023-04-25T02:15:40;2.00;;;1.80;;
76978;SDS011;65911;47.502;19.148;2023-04-25T02:18:50;1.90;;;1.27;;
76978;SDS011;65911;47.502;19.148;2023-04-25T02:21:54;1.92;;;1.50;;
76978;SDS011;65911;47.502;19.148;2023-04-25T02:24:56;1.83;;;1.50;;
76978;SDS011;65911;47.502;19.148;2023-04-25T02:27:59;1.55;;;1.23;;
76978;SDS011;65911;47.502;19.148;2023-04-25T02:31:02;2.65;;;1.75;;
76978;SDS011;65911;47.502;19.148;2023-04-25T02:34:05;1.67;;;1.45;;
76978;SDS011;65911;47.502;19.148;2023-04-25T02:37:10;2.30;;;1.08;;
76978;SDS011;65911;47.502;19.148;2023-04-25T02:40:12;1.83;;;1.37;;
76978;SDS011;65911;47.502;19.148;2023-04-25T02:43:15;1.70;;;1.38;;
76978;SDS011;65911;47.502;19.148;2023-04-25T02:46:18;2.13;;;1.50;;
76978;SDS011;65911;47.502;19.148;2023-04-25T02:49:40;1.63;;;1.53;;
76978;SDS011;65911;47.502;19.148;2023-04-25T02:52:43;1.77;;;1.13;;
76978;SDS011;65911;47.502;19.148;2023-04-25T02:55:49;1.77;;;1.33;;
76978;SDS011;65911;47.502;19.148;2023-04-25T02:58:54;1.80;;;1.30;;
76978;SDS011;65911;47.502;19.148;2023-04-25T03:01:56;1.40;;;1.30;;
76978;SDS011;65911;47.502;19.148;2023-04-25T03:04:59;1.80;;;1.00;;
76978;SDS011;65911;47.502;19.148;2023-04-25T03:08:02;1.90;;;1.27;;
76978;SDS011;65911;47.502;19.148;2023-04-25T03:11:07;1.67;;;0.93;;
76978;SDS011;65911;47.502;19.148;2023-04-25T03:14:09;2.15;;;1.20;;
76978;SDS011;65911;47.502;19.148;2023-04-25T03:17:11;1.00;;;0.93;;
76978;SDS011;65911;47.502;19.148;2023-04-25T03:20:14;2.73;;;0.93;;
76978;SDS011;65911;47.502;19.148;2023-04-25T03:23:16;2.60;;;1.25;;
76978;SDS011;65911;47.502;19.148;2023-04-25T03:26:19;1.63;;;1.38;;
76978;SDS011;65911;47.502;19.148;2023-04-25T03:29:22;1.20;;;0.95;;
76978;SDS011;65911;47.502;19.148;2023-04-25T03:32:28;1.95;;;1.48;;
76978;SDS011;65911;47.502;19.148;2023-04-25T03:35:30;2.47;;;1.38;;
76978;SDS011;65911;47.502;19.148;2023-04-25T03:38:32;3.95;;;1.58;;
76978;SDS011;65911;47.502;19.148;2023-04-25T03:41:35;1.40;;;1.30;;
76978;SDS011;65911;47.502;19.148;2023-04-25T03:44:43;2.20;;;1.50;;
76978;SDS011;65911;47.502;19.148;2023-04-25T03:47:45;1.90;;;1.20;;
76978;SDS011;65911;47.502;19.148;2023-04-25T03:50:48;2.20;;;1.47;;
76978;SDS011;65911;47.502;19.148;2023-04-25T03:53:51;1.50;;;1.02;;
76978;SDS011;65911;47.502;19.148;2023-04-25T03:56:53;2.65;;;1.40;;
76978;SDS011;65911;47.502;19.148;2023-04-25T03:59:58;1.25;;;1.00;;
76978;SDS011;65911;47.502;19.148;2023-04-25T04:03:03;1.45;;;1.35;;
76978;SDS011;65911;47.502;19.148;2023-04-25T04:06:06;1.40;;;1.30;;
76978;SDS011;65911;47.502;19.148;2023-04-25T04:09:18;2.40;;;1.50;;
76978;SDS011;65911;47.502;19.148;2023-04-25T04:12:21;2.07;;;1.30;;
76978;SDS011;65911;47.502;19.148;2023-04-25T04:15:24;3.03;;;1.50;;
76978;SDS011;65911;47.502;19.148;2023-04-25T04:18:26;1.38;;;1.20;;
76978;SDS011;65911;47.502;19.148;2023-04-25T04:21:30;2.93;;;1.60;;
76978;SDS011;65911;47.502;19.148;2023-04-25T04:24:35;2.28;;;1.77;;
76978;SDS011;65911;47.502;19.148;2023-04-25T04:27:42;3.33;;;1.50;;
76978;SDS011;65911;47.502;19.148;2023-04-25T04:30:56;2.22;;;1.45;;
76978;SDS011;65911;47.502;19.148;2023-04-25T04:34:00;2.08;;;1.10;;
76978;SDS011;65911;47.502;19.148;2023-04-25T04:37:04;1.80;;;1.60;;
76978;SDS011;65911;47.502;19.148;2023-04-25T04:40:07;2.25;;;1.70;;
76978;SDS011;65911;47.502;19.148;2023-04-25T04:43:28;2.40;;;1.47;;
76978;SDS011;65911;47.502;19.148;2023-04-25T04:46:37;1.90;;;1.70;;
76978;SDS011;65911;47.502;19.148;2023-04-25T04:50:03;1.83;;;1.30;;
76978;SDS011;65911;47.502;19.148;2023-04-25T04:53:34;1.50;;;1.40;;
76978;SDS011;65911;47.502;19.148;2023-04-25T04:57:15;1.83;;;1.20;;
76978;SDS011;65911;47.502;19.148;2023-04-25T05:00:36;2.15;;;1.52;;
76978;SDS011;65911;47.502;19.148;2023-04-25T05:04:06;2.08;;;1.63;;
76978;SDS011;65911;47.502;19.148;2023-04-25T05:07:23;1.92;;;1.75;;
76978;SDS011;65911;47.502;19.148;2023-04-25T05:10:38;3.03;;;1.63;;
76978;SDS011;65911;47.502;19.148;2023-04-25T05:14:00;1.85;;;1.52;;
76978;SDS011;65911;47.502;19.148;2023-04-25T05:17:21;2.10;;;1.40;;
76978;SDS011;65911;47.502;19.148;2023-04-25T05:20:29;3.05;;;1.60;;
76978;SDS011;65911;47.502;19.148;2023-04-25T05:23:46;1.80;;;1.60;;
76978;SDS011;65911;47.502;19.148;2023-04-25T05:27:07;1.50;;;1.40;;
76978;SDS011;65911;47.502;19.148;2023-04-25T05:30:36;2.10;;;1.25;;
76978;SDS011;65911;47.502;19.148;2023-04-25T05:33:43;2.58;;;1.70;;
76978;SDS011;65911;47.502;19.148;2023-04-25T05:36:46;1.88;;;1.73;;
76978;SDS011;65911;47.502;19.148;2023-04-25T05:39:50;2.10;;;1.42;;
76978;SDS011;65911;47.502;19.148;2023-04-25T05:43:11;2.05;;;1.50;;
76978;SDS011;65911;47.502;19.148;2023-04-25T05:46:22;2.22;;;1.60;;
76978;SDS011;65911;47.502;19.148;2023-04-25T05:49:57;1.50;;;1.30;;
76978;SDS011;65911;47.502;19.148;2023-04-25T05:53:18;1.85;;;1.60;;
76978;SDS011;65911;47.502;19.148;2023-04-25T05:56:28;1.75;;;1.35;;
76978;SDS011;65911;47.502;19.148;2023-04-25T05:59:30;3.17;;;1.63;;
76978;SDS011;65911;47.502;19.148;2023-04-25T06:02:33;1.42;;;1.30;;
76978;SDS011;65911;47.502;19.148;2023-04-25T06:05:36;2.03;;;1.65;;
76978;SDS011;65911;47.502;19.148;2023-04-25T06:08:40;1.75;;;1.40;;
76978;SDS011;65911;47.502;19.148;2023-04-25T06:11:46;2.05;;;1.40;;
76978;SDS011;65911;47.502;19.148;2023-04-25T06:14:50;2.55;;;1.90;;
76978;SDS011;65911;47.502;19.148;2023-04-25T06:17:52;3.50;;;1.58;;
76978;SDS011;65911;47.502;19.148;2023-04-25T06:21:06;2.67;;;1.47;;
76978;SDS011;65911;47.502;19.148;2023-04-25T06:24:08;2.20;;;1.40;;
76978;SDS011;65911;47.502;19.148;2023-04-25T06:27:10;2.25;;;1.48;;
76978;SDS011;65911;47.502;19.148;2023-04-25T06:30:13;2.30;;;1.90;;
76978;SDS011;65911;47.502;19.148;2023-04-25T06:33:17;2.45;;;1.65;;
76978;SDS011;65911;47.502;19.148;2023-04-25T06:36:20;2.83;;;1.77;;
76978;SDS011;65911;47.502;19.148;2023-04-25T06:39:30;2.97;;;2.00;;
76978;SDS011;65911;47.502;19.148;2023-04-25T06:42:32;3.13;;;1.60;;
76978;SDS011;65911;47.502;19.148;2023-04-25T06:45:54;2.63;;;2.20;;
76978;SDS011;65911;47.502;19.148;2023-04-25T06:48:59;1.92;;;1.73;;
76978;SDS011;65911;47.502;19.148;2023-04-25T06:52:02;3.73;;;1.80;;
76978;SDS011;65911;47.502;19.148;2023-04-25T06:55:06;3.00;;;2.00;;
76978;SDS011;65911;47.502;19.148;2023-04-25T06:58:41;2.72;;;2.00;;
76978;SDS011;65911;47.502;19.148;2023-04-25T07:02:00;3.73;;;2.23;;
76978;SDS011;65911;47.502;19.148;2023-04-25T07:05:29;3.47;;;2.03;;
76978;SDS011;65911;47.502;19.148;2023-04-25T07:08:35;3.28;;;1.73;;
76978;SDS011;65911;47.502;19.148;2023-04-25T07:11:38;3.25;;;2.00;;
76978;SDS011;65911;47.502;19.148;2023-04-25T07:14:59;5.38;;;2.20;;
76978;SDS011;65911;47.502;19.148;2023-04-25T07:18:07;2.50;;;2.08;;
76978;SDS011;65911;47.502;19.148;2023-04-25T07:21:10;5.05;;;2.67;;
76978;SDS011;65911;47.502;19.148;2023-04-25T07:24:13;4.07;;;2.30;;
76978;SDS011;65911;47.502;19.148;2023-04-25T07:27:20;3.60;;;2.17;;
76978;SDS011;65911;47.502;19.148;2023-04-25T07:30:32;3.65;;;2.03;;
76978;SDS011;65911;47.502;19.148;2023-04-25T07:33:38;2.93;;;2.23;;
76978;SDS011;65911;47.502;19.148;2023-04-25T07:36:42;3.95;;;2.13;;
76978;SDS011;65911;47.502;19.148;2023-04-25T07:39:44;3.20;;;2.45;;
76978;SDS011;65911;47.502;19.148;2023-04-25T07:42:50;2.60;;;2.40;;
76978;SDS011;65911;47.502;19.148;2023-04-25T07:46:00;4.22;;;2.22;;
76978;SDS011;65911;47.502;19.148;2023-04-25T07:49:05;3.25;;;2.33;;
76978;SDS011;65911;47.502;19.148;2023-04-25T07:52:09;2.92;;;2.20;;
76978;SDS011;65911;47.502;19.148;2023-04-25T07:55:16;2.57;;;2.00;;
76978;SDS011;65911;47.502;19.148;2023-04-25T07:58:55;2.35;;;2.15;;
76978;SDS011;65911;47.502;19.148;2023-04-25T08:02:59;4.68;;;2.63;;
76978;SDS011;65911;47.502;19.148;2023-04-25T08:07:24;3.20;;;2.20;;
76978;SDS011;65911;47.502;19.148;2023-04-25T08:10:29;3.15;;;1.98;;
76978;SDS011;65911;47.502;19.148;2023-04-25T08:13:32;2.42;;;2.22;;
76978;SDS011;65911;47.502;19.148;2023-04-25T08:16:35;2.10;;;1.80;;
76978;SDS011;65911;47.502;19.148;2023-04-25T08:19:38;2.45;;;1.70;;
76978;SDS011;65911;47.502;19.148;2023-04-25T08:22:45;2.47;;;1.70;;
76978;SDS011;65911;47.502;19.148;2023-04-25T08:26:01;3.53;;;2.00;;
76978;SDS011;65911;47.502;19.148;2023-04-25T08:29:06;5.33;;;1.70;;
76978;SDS011;65911;47.502;19.148;2023-04-25T08:32:14;1.95;;;1.75;;
76978;SDS011;65911;47.502;19.148;2023-04-25T08:35:29;1.90;;;1.50;;
76978;SDS011;65911;47.502;19.148;2023-04-25T08:38:31;2.33;;;1.60;;
76978;SDS011;65911;47.502;19.148;2023-04-25T08:41:38;1.77;;;1.38;;
76978;SDS011;65911;47.502;19.148;2023-04-25T08:44:43;1.83;;;1.20;;
76978;SDS011;65911;47.502;19.148;2023-04-25T08:47:47;1.40;;;1.30;;
76978;SDS011;65911;47.502;19.148;2023-04-25T08:50:51;1.35;;;1.23;;
76978;SDS011;65911;47.502;19.148;2023-04-25T08:54:02;1.55;;;1.23;;
76978;SDS011;65911;47.502;19.148;2023-04-25T08:57:35;1.40;;;1.20;;
76978;SDS011;65911;47.502;19.148;2023-04-25T09:00:39;1.37;;;1.27;;
76978;SDS011;65911;47.502;19.148;2023-04-25T09:03:43;2.05;;;1.02;;
76978;SDS011;65911;47.502;19.148;2023-04-25T09:06:52;1.45;;;1.02;;
76978;SDS011;65911;47.502;19.148;2023-04-25T09:09:54;1.70;;;1.37;;
76978;SDS011;65911;47.502;19.148;2023-04-25T09:13:04;1.98;;;1.50;;
76978;SDS011;65911;47.502;19.148;2023-04-25T09:16:32;2.10;;;1.63;;
76978;SDS011;65911;47.502;19.148;2023-04-25T09:19:53;2.03;;;1.83;;
76978;SDS011;65911;47.502;19.148;2023-04-25T09:23:07;2.22;;;1.50;;
76978;SDS011;65911;47.502;19.148;2023-04-25T09:26:15;1.65;;;1.55;;
76978;SDS011;65911;47.502;19.148;2023-04-25T09:29:20;3.25;;;1.45;;
76978;SDS011;65911;47.502;19.148;2023-04-25T09:32:35;2.40;;;1.60;;
76978;SDS011;65911;47.502;19.148;2023-04-25T09:35:42;3.58;;;1.65;;
76978;SDS011;65911;47.502;19.148;2023-04-25T09:38:59;3.05;;;1.42;;
76978;SDS011;65911;47.502;19.148;2023-04-25T09:42:09;1.47;;;1.30;;
76978;SDS011;65911;47.502;19.148;2023-04-25T09:45:12;2.25;;;1.10;;
76978;SDS011;65911;47.502;19.148;2023-04-25T09:48:19;1.80;;;1.30;;
76978;SDS011;65911;47.502;19.148;2023-04-25T09:51:25;1.33;;;1.23;;
76978;SDS011;65911;47.502;19.148;2023-04-25T09:54:30;1.38;;;1.20;;
76978;SDS011;65911;47.502;19.148;2023-04-25T09:57:45;1.10;;;1.00;;
76978;SDS011;65911;47.502;19.148;2023-04-25T10:00:51;2.00;;;1.00;;
76978;SDS011;65911;47.502;19.148;2023-04-25T10:04:06;2.10;;;0.80;;
76978;SDS011;65911;47.502;19.148;2023-04-25T10:07:29;0.68;;;0.40;;
76978;SDS011;65911;47.502;19.148;2023-04-25T10:10:36;1.88;;;0.70;;
76978;SDS011;65911;47.502;19.148;2023-04-25T10:13:40;0.97;;;0.70;;
76978;SDS011;65911;47.502;19.148;2023-04-25T10:16:43;0.55;;;0.55;;
76978;SDS011;65911;47.502;19.148;2023-04-25T10:19:47;1.02;;;0.77;;
76978;SDS011;65911;47.502;19.148;2023-04-25T10:22:49;2.80;;;0.93;;
76978;SDS011;65911;47.502;19.148;2023-04-25T10:25:58;1.58;;;1.10;;
76978;SDS011;65911;47.502;19.148;2023-04-25T10:29:01;1.15;;;1.05;;
76978;SDS011;65911;47.502;19.148;2023-04-25T10:32:04;1.02;;;0.95;;
76978;SDS011;65911;47.502;19.148;2023-04-25T10:38:17;2.05;;;0.90;;
76978;SDS011;65911;47.502;19.148;2023-04-25T10:41:20;2.10;;;0.45;;
76978;SDS011;65911;47.502;19.148;2023-04-25T10:44:26;1.53;;;0.70;;
76978;SDS011;65911;47.502;19.148;2023-04-25T10:47:35;1.38;;;0.70;;
76978;SDS011;65911;47.502;19.148;2023-04-25T10:50:40;1.17;;;0.52;;
76978;SDS011;65911;47.502;19.148;2023-04-25T10:53:48;0.77;;;0.45;;
76978;SDS011;65911;47.502;19.148;2023-04-25T10:56:59;0.50;;;0.43;;
76978;SDS011;65911;47.502;19.148;2023-04-25T11:00:06;0.90;;;0.45;;
76978;SDS011;65911;47.502;19.148;2023-04-25T11:03:16;2.22;;;0.30;;
76978;SDS011;65911;47.502;19.148;2023-04-25T11:06:26;0.60;;;0.40;;
76978;SDS011;65911;47.502;19.148;2023-04-25T11:10:05;0.63;;;0.47;;
76978;SDS011;65911;47.502;19.148;2023-04-25T11:13:08;0.98;;;0.45;;
76978;SDS011;65911;47.502;19.148;2023-04-25T11:16:10;0.50;;;0.43;;
76978;SDS011;65911;47.502;19.148;2023-04-25T11:19:19;0.70;;;0.60;;
76978;SDS011;65911;47.502;19.148;2023-04-25T11:22:22;0.70;;;0.50;;
76978;SDS011;65911;47.502;19.148;2023-04-25T11:25:25;0.57;;;0.57;;
76978;SDS011;65911;47.502;19.148;2023-04-25T11:28:27;1.42;;;0.50;;
76978;SDS011;65911;47.502;19.148;2023-04-25T11:31:43;0.32;;;0.28;;
76978;SDS011;65911;47.502;19.148;2023-04-25T11:34:47;1.25;;;0.20;;
76978;SDS011;65911;47.502;19.148;2023-04-25T11:37:50;0.77;;;0.30;;
76978;SDS011;65911;47.502;19.148;2023-04-25T11:40:53;0.70;;;0.60;;
76978;SDS011;65911;47.502;19.148;2023-04-25T11:43:56;0.95;;;0.40;;
76978;SDS011;65911;47.502;19.148;2023-04-25T11:46:58;0.57;;;0.50;;
76978;SDS011;65911;47.502;19.148;2023-04-25T11:50:01;0.30;;;0.20;;
76978;SDS011;65911;47.502;19.148;2023-04-25T11:53:05;0.47;;;0.47;;
76978;SDS011;65911;47.502;19.148;2023-04-25T11:56:11;0.63;;;0.50;;
76978;SDS011;65911;47.502;19.148;2023-04-25T11:59:13;0.50;;;0.50;;
76978;SDS011;65911;47.502;19.148;2023-04-25T12:02:25;0.68;;;0.63;;
76978;SDS011;65911;47.502;19.148;2023-04-25T12:05:30;0.60;;;0.60;;
76978;SDS011;65911;47.502;19.148;2023-04-25T12:08:36;0.40;;;0.40;;
76978;SDS011;65911;47.502;19.148;2023-04-25T12:11:42;0.77;;;0.40;;
76978;SDS011;65911;47.502;19.148;2023-04-25T12:14:46;0.40;;;0.22;;
76978;SDS011;65911;47.502;19.148;2023-04-25T12:17:51;1.73;;;0.30;;
76978;SDS011;65911;47.502;19.148;2023-04-25T12:20:54;0.40;;;0.40;;
76978;SDS011;65911;47.502;19.148;2023-04-25T12:23:57;0.63;;;0.30;;
76978;SDS011;65911;47.502;19.148;2023-04-25T12:27:13;0.50;;;0.40;;
76978;SDS011;65911;47.502;19.148;2023-04-25T12:30:21;0.75;;;0.50;;
76978;SDS011;65911;47.502;19.148;2023-04-25T12:33:27;0.57;;;0.55;;
76978;SDS011;65911;47.502;19.148;2023-04-25T12:36:30;1.35;;;0.50;;
76978;SDS011;65911;47.502;19.148;2023-04-25T12:39:33;0.60;;;0.50;;
76978;SDS011;65911;47.502;19.148;2023-04-25T12:42:35;0.40;;;0.30;;
76978;SDS011;65911;47.502;19.148;2023-04-25T12:45:41;0.63;;;0.50;;
76978;SDS011;65911;47.502;19.148;2023-04-25T12:48:43;1.40;;;0.40;;
76978;SDS011;65911;47.502;19.148;2023-04-25T12:51:45;1.17;;;0.40;;
76978;SDS011;65911;47.502;19.148;2023-04-25T12:54:48;0.50;;;0.40;;
76978;SDS011;65911;47.502;19.148;2023-04-25T12:57:51;0.80;;;0.60;;
76978;SDS011;65911;47.502;19.148;2023-04-25T13:00:54;0.95;;;0.63;;
76978;SDS011;65911;47.502;19.148;2023-04-25T13:03:56;0.60;;;0.57;;
76978;SDS011;65911;47.502;19.148;2023-04-25T13:06:58;1.75;;;0.60;;
76978;SDS011;65911;47.502;19.148;2023-04-25T13:10:01;0.37;;;0.20;;
76978;SDS011;65911;47.502;19.148;2023-04-25T13:13:04;0.80;;;0.70;;
76978;SDS011;65911;47.502;19.148;2023-04-25T13:16:07;0.75;;;0.30;;
76978;SDS011;65911;47.502;19.148;2023-04-25T13:19:10;1.13;;;0.40;;
76978;SDS011;65911;47.502;19.148;2023-04-25T13:22:13;0.93;;;0.40;;
76978;SDS011;65911;47.502;19.148;2023-04-25T13:25:17;0.70;;;0.50;;
76978;SDS011;65911;47.502;19.148;2023-04-25T13:28:19;3.53;;;0.65;;
76978;SDS011;65911;47.502;19.148;2023-04-25T13:31:21;1.40;;;0.65;;
76978;SDS011;65911;47.502;19.148;2023-04-25T13:34:24;4.10;;;0.70;;
76978;SDS011;65911;47.502;19.148;2023-04-25T13:37:26;0.93;;;0.65;;
76978;SDS011;65911;47.502;19.148;2023-04-25T13:40:28;0.93;;;0.50;;
76978;SDS011;65911;47.502;19.148;2023-04-25T13:43:31;0.57;;;0.57;;
76978;SDS011;65911;47.502;19.148;2023-04-25T13:46:34;0.30;;;0.30;;
76978;SDS011;65911;47.502;19.148;2023-04-25T13:49:48;0.93;;;0.50;;
76978;SDS011;65911;47.502;19.148;2023-04-25T13:52:51;0.50;;;0.50;;
76978;SDS011;65911;47.502;19.148;2023-04-25T13:55:53;0.40;;;0.40;;
76978;SDS011;65911;47.502;19.148;2023-04-25T13:58:57;0.55;;;0.55;;
76978;SDS011;65911;47.502;19.148;2023-04-25T14:01:59;0.98;;;0.68;;
76978;SDS011;65911;47.502;19.148;2023-04-25T14:05:02;0.65;;;0.60;;
76978;SDS011;65911;47.502;19.148;2023-04-25T14:08:06;0.60;;;0.60;;
76978;SDS011;65911;47.502;19.148;2023-04-25T14:11:09;0.60;;;0.40;;
76978;SDS011;65911;47.502;19.148;2023-04-25T14:14:11;1.27;;;0.60;;
76978;SDS011;65911;47.502;19.148;2023-04-25T14:17:15;0.90;;;0.50;;
76978;SDS011;65911;47.502;19.148;2023-04-25T14:20:17;1.53;;;0.50;;
76978;SDS011;65911;47.502;19.148;2023-04-25T14:23:26;0.52;;;0.40;;
76978;SDS011;65911;47.502;19.148;2023-04-25T14:26:28;1.45;;;0.60;;
76978;SDS011;65911;47.502;19.148;2023-04-25T14:29:30;1.52;;;0.57;;
76978;SDS011;65911;47.502;19.148;2023-04-25T14:32:33;2.90;;;0.70;;
76978;SDS011;65911;47.502;19.148;2023-04-25T14:35:35;1.77;;;0.63;;
76978;SDS011;65911;47.502;19.148;2023-04-25T14:38:37;2.22;;;0.60;;
76978;SDS011;65911;47.502;19.148;2023-04-25T14:41:39;0.63;;;0.50;;
76978;SDS011;65911;47.502;19.148;2023-04-25T14:44:41;0.90;;;0.60;;
76978;SDS011;65911;47.502;19.148;2023-04-25T14:47:44;1.23;;;0.55;;
76978;SDS011;65911;47.502;19.148;2023-04-25T14:50:46;0.60;;;0.50;;
76978;SDS011;65911;47.502;19.148;2023-04-25T14:53:48;0.80;;;0.40;;
76978;SDS011;65911;47.502;19.148;2023-04-25T14:56:52;1.50;;;0.70;;
76978;SDS011;65911;47.502;19.148;2023-04-25T14:59:54;0.80;;;0.57;;
76978;SDS011;65911;47.502;19.148;2023-04-25T15:02:57;0.52;;;0.52;;
76978;SDS011;65911;47.502;19.148;2023-04-25T15:06:00;2.63;;;0.60;;
76978;SDS011;65911;47.502;19.148;2023-04-25T15:09:02;1.52;;;0.47;;
76978;SDS011;65911;47.502;19.148;2023-04-25T15:12:05;1.70;;;0.50;;
76978;SDS011;65911;47.502;19.148;2023-04-25T15:15:07;0.93;;;0.40;;
76978;SDS011;65911;47.502;19.148;2023-04-25T15:18:19;2.33;;;0.40;;
76978;SDS011;65911;47.502;19.148;2023-04-25T15:21:24;1.07;;;0.67;;
76978;SDS011;65911;47.502;19.148;2023-04-25T15:24:28;0.80;;;0.60;;
76978;SDS011;65911;47.502;19.148;2023-04-25T15:27:30;1.45;;;0.40;;
76978;SDS011;65911;47.502;19.148;2023-04-25T15:30:33;0.52;;;0.50;;
76978;SDS011;65911;47.502;19.148;2023-04-25T15:33:35;1.73;;;0.90;;
76978;SDS011;65911;47.502;19.148;2023-04-25T15:36:37;0.73;;;0.40;;
76978;SDS011;65911;47.502;19.148;2023-04-25T15:39:39;0.90;;;0.60;;
76978;SDS011;65911;47.502;19.148;2023-04-25T15:42:43;1.23;;;0.60;;
76978;SDS011;65911;47.502;19.148;2023-04-25T15:45:52;0.85;;;0.63;;
76978;SDS011;65911;47.502;19.148;2023-04-25T15:48:55;0.65;;;0.50;;
76978;SDS011;65911;47.502;19.148;2023-04-25T15:51:58;1.10;;;0.73;;
76978;SDS011;65911;47.502;19.148;2023-04-25T15:55:04;2.33;;;0.63;;
76978;SDS011;65911;47.502;19.148;2023-04-25T15:58:07;0.73;;;0.40;;
76978;SDS011;65911;47.502;19.148;2023-04-25T16:01:13;1.10;;;0.60;;
76978;SDS011;65911;47.502;19.148;2023-04-25T16:04:15;1.40;;;0.98;;
76978;SDS011;65911;47.502;19.148;2023-04-25T16:07:18;1.55;;;1.20;;
76978;SDS011;65911;47.502;19.148;2023-04-25T16:10:21;1.58;;;0.90;;
76978;SDS011;65911;47.502;19.148;2023-04-25T16:13:23;2.17;;;1.00;;
76978;SDS011;65911;47.502;19.148;2023-04-25T16:16:25;1.77;;;1.05;;
76978;SDS011;65911;47.502;19.148;2023-04-25T16:19:28;1.40;;;0.90;;
76978;SDS011;65911;47.502;19.148;2023-04-25T16:22:30;2.37;;;1.00;;
76978;SDS011;65911;47.502;19.148;2023-04-25T16:25:32;2.10;;;0.98;;
76978;SDS011;65911;47.502;19.148;2023-04-25T16:28:35;3.00;;;1.17;;
76978;SDS011;65911;47.502;19.148;2023-04-25T16:31:37;1.95;;;1.30;;
76978;SDS011;65911;47.502;19.148;2023-04-25T16:34:39;1.40;;;1.10;;
76978;SDS011;65911;47.502;19.148;2023-04-25T16:37:42;2.47;;;1.42;;
76978;SDS011;65911;47.502;19.148;2023-04-25T16:40:45;2.53;;;1.40;;
76978;SDS011;65911;47.502;19.148;2023-04-25T16:43:47;1.40;;;0.90;;
76978;SDS011;65911;47.502;19.148;2023-04-25T16:46:49;2.65;;;1.30;;
76978;SDS011;65911;47.502;19.148;2023-04-25T16:49:54;2.90;;;1.20;;
76978;SDS011;65911;47.502;19.148;2023-04-25T16:52:57;1.53;;;1.30;;
76978;SDS011;65911;47.502;19.148;2023-04-25T16:55:59;2.03;;;1.20;;
76978;SDS011;65911;47.502;19.148;2023-04-25T16:59:01;2.35;;;1.38;;
76978;SDS011;65911;47.502;19.148;2023-04-25T17:02:03;2.85;;;1.50;;
76978;SDS011;65911;47.502;19.148;2023-04-25T17:05:06;1.85;;;1.35;;
76978;SDS011;65911;47.502;19.148;2023-04-25T17:08:08;2.78;;;1.35;;
76978;SDS011;65911;47.502;19.148;2023-04-25T17:11:10;4.05;;;1.80;;
76978;SDS011;65911;47.502;19.148;2023-04-25T17:14:13;2.83;;;1.30;;
76978;SDS011;65911;47.502;19.148;2023-04-25T17:17:15;4.18;;;1.85;;
76978;SDS011;65911;47.502;19.148;2023-04-25T17:20:19;2.72;;;1.50;;
76978;SDS011;65911;47.502;19.148;2023-04-25T17:23:23;3.17;;;1.40;;
76978;SDS011;65911;47.502;19.148;2023-04-25T17:26:25;2.00;;;1.30;;
76978;SDS011;65911;47.502;19.148;2023-04-25T17:29:30;2.17;;;1.70;;
76978;SDS011;65911;47.502;19.148;2023-04-25T17:32:35;2.08;;;1.38;;
76978;SDS011;65911;47.502;19.148;2023-04-25T17:35:37;3.15;;;1.70;;
76978;SDS011;65911;47.502;19.148;2023-04-25T17:38:39;2.53;;;1.50;;
76978;SDS011;65911;47.502;19.148;2023-04-25T17:41:42;1.35;;;1.02;;
76978;SDS011;65911;47.502;19.148;2023-04-25T17:44:45;3.33;;;1.43;;
76978;SDS011;65911;47.502;19.148;2023-04-25T17:47:47;2.47;;;1.70;;
76978;SDS011;65911;47.502;19.148;2023-04-25T17:50:50;2.75;;;1.45;;
76978;SDS011;65911;47.502;19.148;2023-04-25T17:53:52;2.93;;;1.60;;
76978;SDS011;65911;47.502;19.148;2023-04-25T17:56:54;2.50;;;1.50;;
76978;SDS011;65911;47.502;19.148;2023-04-25T17:59:57;1.40;;;1.30;;
76978;SDS011;65911;47.502;19.148;2023-04-25T18:02:59;1.63;;;1.33;;
76978;SDS011;65911;47.502;19.148;2023-04-25T18:06:02;2.63;;;1.20;;
76978;SDS011;65911;47.502;19.148;2023-04-25T18:09:05;1.48;;;1.15;;
76978;SDS011;65911;47.502;19.148;2023-04-25T18:12:18;3.20;;;1.60;;
76978;SDS011;65911;47.502;19.148;2023-04-25T18:15:20;2.00;;;1.43;;
76978;SDS011;65911;47.502;19.148;2023-04-25T18:18:23;2.83;;;1.55;;
76978;SDS011;65911;47.502;19.148;2023-04-25T18:21:28;3.53;;;1.67;;
76978;SDS011;65911;47.502;19.148;2023-04-25T18:24:31;1.63;;;1.30;;
76978;SDS011;65911;47.502;19.148;2023-04-25T18:27:33;1.98;;;1.40;;